createdAt,value
2019-04-26T00:01:23.127Z,1.10
2019-04-26T00:03:49.139Z,0.83
2019-04-26T00:06:16.574Z,0.90
2019-04-26T00:08:42.984Z,1.00
2019-04-26T00:11:09.640Z,0.90
2019-04-26T00:13:38.587Z,0.90
2019-04-26T00:16:04.942Z,1.00
2019-04-26T00:18:30.842Z,0.90
2019-04-26T00:20:57.089Z,0.90
2019-04-26T00:23:23.092Z,1.00
2019-04-26T00:25:49.223Z,1.10
2019-04-26T00:28:15.305Z,0.90
2019-04-26T00:30:41.555Z,1.00
2019-04-26T00:33:07.620Z,1.20
2019-04-26T00:35:33.526Z,1.00
2019-04-26T00:37:59.433Z,1.10
2019-04-26T00:40:25.851Z,1.07
2019-04-26T00:42:53.311Z,0.80
2019-04-26T00:45:20.982Z,1.00
2019-04-26T00:47:49.512Z,1.10
2019-04-26T00:50:15.722Z,1.20
2019-04-26T00:52:42.488Z,1.00
2019-04-26T00:55:09.967Z,1.00
2019-04-26T00:57:36.507Z,1.00
2019-04-26T01:00:04.476Z,1.03
2019-04-26T01:02:30.524Z,1.00
2019-04-26T01:04:56.546Z,1.00
2019-04-26T01:07:23.241Z,1.23
2019-04-26T01:09:49.288Z,0.90
2019-04-26T01:12:16.424Z,0.87
2019-04-26T01:14:42.779Z,0.83
2019-04-26T01:17:08.707Z,0.80
2019-04-26T01:19:37.206Z,1.10
2019-04-26T01:22:06.978Z,1.10
2019-04-26T01:24:34.235Z,1.10
2019-04-26T01:27:02.874Z,1.00
2019-04-26T01:29:29.483Z,1.00
2019-04-26T01:32:05.301Z,1.00
2019-04-26T01:34:32.797Z,1.00
2019-04-26T01:37:00.745Z,1.00
2019-04-26T01:39:27.897Z,1.20
2019-04-26T01:41:54.171Z,1.10
2019-04-26T01:44:22.997Z,1.10
2019-04-26T01:46:49.459Z,1.20
2019-04-26T01:49:18.557Z,1.10
2019-04-26T01:51:51.215Z,1.47
2019-04-26T01:54:22.469Z,1.20
2019-04-26T01:56:52.369Z,1.30
2019-04-26T01:59:20.989Z,1.37
2019-04-26T02:01:48.020Z,1.20
2019-04-26T02:04:14.062Z,1.40
2019-04-26T02:06:40.104Z,1.47
2019-04-26T02:09:06.644Z,1.30
2019-04-26T02:11:33.153Z,1.50
2019-04-26T02:14:00.100Z,1.43
2019-04-26T02:16:27.018Z,1.30
2019-04-26T02:18:52.971Z,1.60
2019-04-26T02:21:19.341Z,1.53
2019-04-26T02:23:45.862Z,1.40
2019-04-26T02:26:13.468Z,1.43
2019-04-26T02:28:39.416Z,1.33
2019-04-26T02:31:05.485Z,1.60
2019-04-26T02:33:33.311Z,1.60
2019-04-26T02:35:59.679Z,1.70
2019-04-26T02:38:27.939Z,2.00
2019-04-26T02:40:53.963Z,2.00
2019-04-26T02:43:23.372Z,2.00
2019-04-26T02:45:50.507Z,2.30
2019-04-26T02:48:19.898Z,1.80
2019-04-26T02:50:52.424Z,1.90
2019-04-26T02:53:35.367Z,2.20
2019-04-26T02:56:15.602Z,2.10
2019-04-26T02:58:45.279Z,2.30
2019-04-26T03:01:11.230Z,2.37
2019-04-26T03:03:38.139Z,1.80
2019-04-26T03:06:05.650Z,2.20
2019-04-26T03:08:35.824Z,1.90
2019-04-26T03:11:06.674Z,1.83
2019-04-26T03:13:38.078Z,2.10
2019-04-26T03:16:08.183Z,1.90
2019-04-26T03:18:39.454Z,1.80
2019-04-26T03:21:37.392Z,2.03
2019-04-26T03:24:16.290Z,2.20
2019-04-26T03:27:07.449Z,1.97
2019-04-26T03:29:52.562Z,1.97
2019-04-26T03:32:25.582Z,2.23
2019-04-26T03:35:04.321Z,2.20
2019-04-26T03:37:36.020Z,2.10
2019-04-26T03:40:11.895Z,2.33
2019-04-26T03:42:42.716Z,2.20
2019-04-26T03:45:33.018Z,2.10
2019-04-26T03:48:24.880Z,2.13
2019-04-26T03:51:00.630Z,2.40
2019-04-26T03:53:35.475Z,2.50
2019-04-26T03:56:17.205Z,2.20
2019-04-26T03:58:46.918Z,2.33
2019-04-26T04:01:13.369Z,2.70
2019-04-26T04:03:43.633Z,2.70
2019-04-26T04:06:12.587Z,2.40
2019-04-26T04:08:51.135Z,2.97
2019-04-26T04:11:20.947Z,2.90
2019-04-26T04:13:53.612Z,3.10
2019-04-26T04:16:32.486Z,2.90
2019-04-26T04:19:07.825Z,3.50
2019-04-26T04:22:00.577Z,3.10
2019-04-26T04:24:32.907Z,3.17
2019-04-26T04:27:11.604Z,3.30
2019-04-26T04:29:55.592Z,3.00
2019-04-26T04:32:34.557Z,2.97
2019-04-26T04:35:06.756Z,2.73
2019-04-26T04:37:52.659Z,2.70
2019-04-26T04:40:07.658Z,2.83
2019-04-26T04:42:48.101Z,2.77
2019-04-26T04:45:27.353Z,2.60
2019-04-26T04:48:12.431Z,2.67
2019-04-26T04:50:43.324Z,2.57
2019-04-26T04:53:28.688Z,2.53
2019-04-26T04:56:20.882Z,2.40
2019-04-26T04:58:57.497Z,2.60
2019-04-26T05:01:39.439Z,2.40
2019-04-26T05:04:15.108Z,2.57
2019-04-26T05:06:57.019Z,2.67
2019-04-26T05:09:26.945Z,2.20
2019-04-26T05:12:05.514Z,2.17
2019-04-26T05:14:56.508Z,2.10
2019-04-26T05:17:46.158Z,2.40
2019-04-26T05:20:31.065Z,2.30
2019-04-26T05:23:10.040Z,2.33
2019-04-26T05:25:59.699Z,2.30
2019-04-26T05:28:35.447Z,2.30
2019-04-26T05:31:24.477Z,2.37
2019-04-26T05:34:14.940Z,2.47
2019-04-26T05:37:03.112Z,2.80
2019-04-26T05:39:38.762Z,2.70
2019-04-26T05:42:11.651Z,2.90
2019-04-26T05:44:44.123Z,2.80
2019-04-26T05:47:27.208Z,2.60
2019-04-26T05:50:05.974Z,2.70
2019-04-26T05:52:55.746Z,2.40
2019-04-26T05:55:46.739Z,2.60
2019-04-26T05:58:21.984Z,2.60
2019-04-26T06:01:14.886Z,2.10
2019-04-26T06:03:50.873Z,2.40
2019-04-26T06:06:39.012Z,2.50
2019-04-26T06:09:08.929Z,2.45
2019-04-26T06:11:44.444Z,2.30
2019-04-26T06:14:19.969Z,2.50
2019-04-26T06:17:01.839Z,2.60
2019-04-26T06:19:31.753Z,2.67
2019-04-26T06:22:13.643Z,3.30
2019-04-26T06:25:03.391Z,3.80
2019-04-26T06:27:33.128Z,3.70
2019-04-26T06:30:19.011Z,3.65
2019-04-26T06:33:20.651Z,3.15
2019-04-26T06:35:49.893Z,3.60
2019-04-26T06:38:44.135Z,3.30
2019-04-26T06:41:37.632Z,3.20
2019-04-26T06:44:13.176Z,3.45
2019-04-26T06:47:00.108Z,3.47
2019-04-26T06:49:38.948Z,3.40
2019-04-26T06:52:18.043Z,3.42
2019-04-26T06:55:13.968Z,3.40
2019-04-26T06:58:13.108Z,3.60
2019-04-26T07:00:45.659Z,3.60
2019-04-26T07:03:49.172Z,4.10
2019-04-26T07:06:19.001Z,3.70
2019-04-26T07:08:57.362Z,4.00
2019-04-26T07:11:21.505Z,3.70
2019-04-26T07:14:08.178Z,4.50
2019-04-26T07:16:53.030Z,4.00
2019-04-26T07:19:28.789Z,4.30
2019-04-26T07:21:58.639Z,3.98
2019-04-26T07:24:48.528Z,4.25
2019-04-26T07:27:31.099Z,3.90
2019-04-26T07:30:15.498Z,4.45
2019-04-26T07:32:51.384Z,4.37
2019-04-26T07:35:39.051Z,4.20
2019-04-26T07:38:15.122Z,4.58
2019-04-26T07:41:01.629Z,4.58
2019-04-26T07:43:53.183Z,4.80
2019-04-26T07:46:29.042Z,4.20
2019-04-26T07:49:32.469Z,3.80
2019-04-26T07:52:23.762Z,3.60
2019-04-26T07:55:06.567Z,3.70
2019-04-26T07:57:43.317Z,3.65
2019-04-26T08:00:18.793Z,3.55
2019-04-26T08:02:51.255Z,3.30
2019-04-26T08:05:32.815Z,3.52
2019-04-26T08:08:06.892Z,2.87
2019-04-26T08:10:39.683Z,3.37
2019-04-26T08:13:15.290Z,2.92
2019-04-26T08:15:45.228Z,2.85
2019-04-26T08:18:15.803Z,2.97
2019-04-26T08:20:48.164Z,2.73
2019-04-26T08:23:38.119Z,2.90
2019-04-26T08:25:48.235Z,2.73
2019-04-26T08:28:17.906Z,2.90
2019-04-26T08:30:47.129Z,3.10
2019-04-26T08:33:18.075Z,2.93
2019-04-26T08:35:48.934Z,3.43
2019-04-26T08:38:22.317Z,3.17
2019-04-26T08:40:43.926Z,3.40
2019-04-26T08:43:10.931Z,2.77
2019-04-26T08:45:40.514Z,3.10
2019-04-26T08:48:09.373Z,3.20
2019-04-26T08:50:36.673Z,3.23
2019-04-26T08:53:03.574Z,3.87
2019-04-26T08:55:33.158Z,3.83
2019-04-26T08:58:02.993Z,3.40
2019-04-26T09:00:32.463Z,3.57
2019-04-26T09:03:10.991Z,3.50
2019-04-26T09:05:32.326Z,3.80
2019-04-26T09:07:59.145Z,3.70
2019-04-26T09:10:28.885Z,3.67
2019-04-26T09:12:58.588Z,3.67
2019-04-26T09:15:40.705Z,3.90
2019-04-26T09:18:06.974Z,3.57
2019-04-26T09:20:32.879Z,3.27
2019-04-26T09:23:03.842Z,3.50
2019-04-26T09:25:30.227Z,3.70
2019-04-26T09:27:55.749Z,3.50
2019-04-26T09:30:33.328Z,3.43
2019-04-26T09:32:49.901Z,12.97
2019-04-26T09:35:16.404Z,4.43
2019-04-26T09:37:42.349Z,3.37
2019-04-26T09:40:10.640Z,4.03
2019-04-26T09:42:39.279Z,4.17
2019-04-26T09:45:06.903Z,3.73
2019-04-26T09:47:33.113Z,4.20
2019-04-26T09:49:59.042Z,4.30
2019-04-26T09:52:25.153Z,4.53
2019-04-26T09:54:51.057Z,4.47
2019-04-26T09:57:16.985Z,4.33
2019-04-26T09:59:42.885Z,4.53
2019-04-26T10:02:10.831Z,4.50
2019-04-26T10:04:36.733Z,4.33
2019-04-26T10:07:04.068Z,4.53
2019-04-26T10:09:30.975Z,4.63
2019-04-26T10:11:57.068Z,4.70
2019-04-26T10:14:24.057Z,4.53
2019-04-26T10:16:49.998Z,4.70
2019-04-26T10:19:16.005Z,4.33
2019-04-26T10:21:41.950Z,4.70
2019-04-26T10:24:08.425Z,4.70
2019-04-26T10:26:34.733Z,5.70
2019-04-26T10:29:00.777Z,5.10
2019-04-26T10:31:26.711Z,5.20
2019-04-26T10:33:54.632Z,4.83
2019-04-26T10:36:20.739Z,5.23
2019-04-26T10:38:46.964Z,5.63
2019-04-26T10:41:13.043Z,5.90
2019-04-26T10:43:39.012Z,5.90
2019-04-26T10:46:05.032Z,6.30
2019-04-26T10:48:31.162Z,6.27
2019-04-26T10:50:57.179Z,6.03
2019-04-26T10:53:25.580Z,6.50
2019-04-26T10:55:51.504Z,5.73
2019-04-26T10:58:17.851Z,5.97
2019-04-26T11:00:43.835Z,6.00
2019-04-26T11:03:09.865Z,6.03
2019-04-26T11:05:35.760Z,6.10
2019-04-26T11:08:01.692Z,5.97
2019-04-26T11:10:29.042Z,6.17
2019-04-26T11:12:55.053Z,6.67
2019-04-26T11:15:21.091Z,5.87
2019-04-26T11:17:49.901Z,5.90
2019-04-26T11:20:15.085Z,5.60
2019-04-26T11:22:41.037Z,5.90
2019-04-26T11:25:10.404Z,6.10
2019-04-26T11:27:36.338Z,5.80
2019-04-26T11:30:11.701Z,5.67
2019-04-26T11:32:33.166Z,5.67
2019-04-26T11:35:00.470Z,6.30
2019-04-26T11:37:26.541Z,7.07
2019-04-26T11:39:52.805Z,6.60
2019-04-26T11:42:18.763Z,6.53
2019-04-26T11:44:44.949Z,6.40
2019-04-26T11:47:10.857Z,6.27
2019-04-26T11:49:37.404Z,5.70
2019-04-26T11:52:04.646Z,6.33
2019-04-26T11:54:30.598Z,6.60
2019-04-26T11:56:57.800Z,5.70
2019-04-26T11:59:27.093Z,6.70
2019-04-26T12:01:51.705Z,6.50
2019-04-26T12:04:17.636Z,6.53
2019-04-26T12:06:43.533Z,6.70
2019-04-26T12:09:09.734Z,6.80
2019-04-26T12:11:35.827Z,6.70
2019-04-26T12:14:03.953Z,6.70
2019-04-26T12:16:29.911Z,6.90
2019-04-26T12:18:55.911Z,6.67
2019-04-26T12:21:22.026Z,7.13
2019-04-26T12:23:51.314Z,7.23
2019-04-26T12:26:17.329Z,7.43
2019-04-26T12:28:44.011Z,7.33
2019-04-26T12:31:09.973Z,8.03
2019-04-26T12:33:39.027Z,8.50
2019-04-26T12:36:03.706Z,7.87
2019-04-26T12:38:30.092Z,8.00
2019-04-26T12:40:56.797Z,8.13
2019-04-26T12:43:24.596Z,7.60
2019-04-26T12:45:52.543Z,8.53
2019-04-26T12:48:18.682Z,8.33
2019-04-26T12:50:44.628Z,8.10
2019-04-26T12:53:10.526Z,8.57
2019-04-26T12:55:36.791Z,8.27
2019-04-26T12:58:02.906Z,7.80
2019-04-26T13:00:32.973Z,7.97
2019-04-26T13:02:57.063Z,8.43
2019-04-26T13:05:23.044Z,8.27
2019-04-26T13:07:48.946Z,8.37
2019-04-26T13:10:14.990Z,8.80
2019-04-26T13:12:41.146Z,8.97
2019-04-26T13:15:37.226Z,10.03
2019-04-26T13:18:03.222Z,9.23
2019-04-26T13:20:30.278Z,7.63
2019-04-26T13:22:56.395Z,6.60
2019-04-26T13:25:26.567Z,6.03
2019-04-26T13:27:50.155Z,6.60
2019-04-26T13:30:16.554Z,7.00
2019-04-26T13:32:42.632Z,7.37
2019-04-26T13:35:11.340Z,6.80
2019-04-26T13:37:37.027Z,7.03
2019-04-26T13:40:05.452Z,7.30
2019-04-26T13:42:31.583Z,6.90
2019-04-26T13:44:58.713Z,7.13
2019-04-26T13:47:24.621Z,6.60
2019-04-26T13:49:52.355Z,6.70
2019-04-26T13:52:18.525Z,6.33
2019-04-26T13:54:44.586Z,5.50
2019-04-26T13:57:11.240Z,5.00
2019-04-26T13:59:37.514Z,3.60
2019-04-26T14:02:11.431Z,3.53
2019-04-26T14:04:32.644Z,3.30
2019-04-26T14:06:58.544Z,3.03
2019-04-26T14:09:24.818Z,3.13
2019-04-26T14:11:50.734Z,2.97
2019-04-26T14:14:18.472Z,3.20
2019-04-26T14:16:44.445Z,3.30
2019-04-26T14:19:15.227Z,3.20
2019-04-26T14:21:38.490Z,2.60
2019-04-26T14:24:04.593Z,2.73
2019-04-26T14:29:13.849Z,2.80
2019-04-26T14:31:40.737Z,2.57
2019-04-26T14:34:07.141Z,2.70
2019-04-26T14:36:35.041Z,2.90
2019-04-26T14:39:05.991Z,2.70
2019-04-26T14:41:31.232Z,2.77
2019-04-26T14:43:57.876Z,3.10
2019-04-26T14:46:23.908Z,2.63
2019-04-26T14:49:00.981Z,2.60
2019-04-26T14:51:18.659Z,2.90
2019-04-26T14:53:44.896Z,2.70
2019-04-26T14:56:11.108Z,3.00
2019-04-26T14:58:37.197Z,2.90
2019-04-26T15:01:03.429Z,2.70
2019-04-26T15:03:29.386Z,2.90
2019-04-26T15:05:55.466Z,2.80
2019-04-26T15:08:22.614Z,3.10
2019-04-26T15:10:57.596Z,2.87
2019-04-26T15:13:20.772Z,3.00
2019-04-26T15:15:46.256Z,2.47
2019-04-26T15:18:12.464Z,2.90
2019-04-26T15:20:38.488Z,3.00
2019-04-26T15:23:04.489Z,2.90
2019-04-26T15:25:31.793Z,2.63
2019-04-26T15:27:59.443Z,2.90
2019-04-26T15:30:25.546Z,3.67
2019-04-26T15:32:52.908Z,3.23
2019-04-26T15:35:18.995Z,3.80
2019-04-26T15:37:44.977Z,4.10
2019-04-26T15:40:12.788Z,4.20
2019-04-26T15:42:39.018Z,3.43
2019-04-26T15:45:05.336Z,3.40
2019-04-26T15:47:32.054Z,3.87
2019-04-26T15:49:59.195Z,3.90
2019-04-26T15:52:25.258Z,3.90
2019-04-26T15:54:52.865Z,3.90
2019-04-26T15:57:19.372Z,3.60
2019-04-26T15:59:45.624Z,3.60
2019-04-26T16:02:12.454Z,3.40
2019-04-26T16:04:38.709Z,3.80
2019-04-26T16:07:04.659Z,3.70
2019-04-26T16:09:32.475Z,4.23
2019-04-26T16:11:58.782Z,3.70
2019-04-26T16:14:31.302Z,3.67
2019-04-26T16:16:54.103Z,4.10
2019-04-26T16:19:20.210Z,3.50
2019-04-26T16:21:48.253Z,4.20
2019-04-26T16:24:14.145Z,4.63
2019-04-26T16:26:40.076Z,3.80
2019-04-26T16:29:06.048Z,4.33
2019-04-26T16:31:34.128Z,4.60
2019-04-26T16:34:06.104Z,5.13
2019-04-26T16:36:28.102Z,4.10
2019-04-26T16:38:56.749Z,4.10
2019-04-26T16:41:27.161Z,3.97
2019-04-26T16:43:53.334Z,3.57
2019-04-26T16:46:20.648Z,3.23
2019-04-26T16:48:46.899Z,3.70
2019-04-26T16:51:14.438Z,3.47
2019-04-26T16:53:58.811Z,2.90
2019-04-26T16:56:08.598Z,3.10
2019-04-26T16:58:38.385Z,3.37
2019-04-26T17:01:04.536Z,3.03
2019-04-26T17:03:30.690Z,2.97
2019-04-26T17:06:06.709Z,3.27
2019-04-26T17:08:26.462Z,3.20
2019-04-26T17:10:56.776Z,3.13
2019-04-26T17:13:24.022Z,3.33
2019-04-26T17:15:52.095Z,3.20
2019-04-26T17:18:19.332Z,3.43
2019-04-26T17:20:46.714Z,3.77
2019-04-26T17:23:12.859Z,3.80
2019-04-26T17:25:38.802Z,3.40
2019-04-26T17:28:04.704Z,3.70
2019-04-26T17:30:34.538Z,3.97
2019-04-26T17:32:58.678Z,3.30
2019-04-26T17:35:25.394Z,3.63
2019-04-26T17:37:52.924Z,3.83
2019-04-26T17:40:23.620Z,3.53
2019-04-26T17:42:47.663Z,3.57
2019-04-26T17:45:13.809Z,6.10
2019-04-26T17:47:41.864Z,5.20
2019-04-26T17:50:08.108Z,4.60
2019-04-26T17:52:37.589Z,5.10
2019-04-26T17:55:07.806Z,4.10
2019-04-26T17:57:36.633Z,4.40
2019-04-26T18:00:07.958Z,4.30
2019-04-26T18:02:41.256Z,4.20
2019-04-26T18:05:01.568Z,4.13
2019-04-26T18:07:40.246Z,4.40
2019-04-26T18:09:57.074Z,4.60
2019-04-26T18:12:22.306Z,4.33
2019-04-26T18:14:50.409Z,5.80
2019-04-26T18:17:17.452Z,4.40
2019-04-26T18:19:43.482Z,5.03
2019-04-26T18:22:12.353Z,5.30
2019-04-26T18:24:37.351Z,5.10
2019-04-26T18:27:03.587Z,6.20
2019-04-26T18:29:30.467Z,6.70
2019-04-26T18:31:59.063Z,5.23
2019-04-26T18:34:24.881Z,7.03
2019-04-26T18:37:02.018Z,13.63
2019-04-26T18:39:27.408Z,8.40
2019-04-26T18:41:54.271Z,10.60
2019-04-26T18:44:20.168Z,5.73
2019-04-26T18:46:47.278Z,5.20
2019-04-26T18:49:18.161Z,5.47
2019-04-26T18:51:43.289Z,5.47
2019-04-26T18:54:13.357Z,6.23
2019-04-26T18:56:40.514Z,5.93
2019-04-26T18:59:07.311Z,5.80
2019-04-26T19:01:34.679Z,6.10
2019-04-26T19:04:09.554Z,6.03
2019-04-26T19:06:31.829Z,6.33
2019-04-26T19:09:01.532Z,6.10
2019-04-26T19:11:25.741Z,6.40
2019-04-26T19:13:53.133Z,5.60
2019-04-26T19:16:21.439Z,6.07
2019-04-26T19:18:47.824Z,5.97
2019-04-26T19:21:14.348Z,5.90
2019-04-26T19:23:41.554Z,5.77
2019-04-26T19:26:09.407Z,6.00
2019-04-26T19:28:39.924Z,5.90
2019-04-26T19:31:06.180Z,5.73
2019-04-26T19:33:32.222Z,6.20
2019-04-26T19:35:58.303Z,6.50
2019-04-26T19:38:24.341Z,6.50
2019-04-26T19:40:52.051Z,6.90
2019-04-26T19:43:30.297Z,7.03
2019-04-26T19:45:47.220Z,7.10
2019-04-26T19:48:19.212Z,6.53
2019-04-26T19:50:48.517Z,7.73
2019-04-26T19:53:10.340Z,6.30
2019-04-26T19:55:37.030Z,6.77
2019-04-26T19:58:03.196Z,6.70
2019-04-26T20:00:29.232Z,6.97
2019-04-26T20:02:55.349Z,7.37
2019-04-26T20:05:22.542Z,6.73
2019-04-26T20:07:48.683Z,7.70
2019-04-26T20:10:14.807Z,7.30
2019-04-26T20:12:41.337Z,7.50
2019-04-26T20:15:07.829Z,7.60
2019-04-26T20:17:33.815Z,8.07
2019-04-26T20:19:59.767Z,8.70
2019-04-26T20:22:28.667Z,8.67
2019-04-26T20:24:57.331Z,7.90
2019-04-26T20:27:25.244Z,23.40
2019-04-26T20:29:51.625Z,36.80
2019-04-26T20:32:21.182Z,28.93
2019-04-26T20:34:49.346Z,18.80
2019-04-26T20:37:16.204Z,15.67
2019-04-26T20:39:41.983Z,14.63
2019-04-26T20:42:08.109Z,12.80
2019-04-26T20:44:48.253Z,32.03
2019-04-26T20:47:03.354Z,33.67
2019-04-26T20:49:29.556Z,11.67
2019-04-26T20:51:55.653Z,10.30
2019-04-26T20:54:22.446Z,8.97
2019-04-26T20:56:52.509Z,8.60
2019-04-26T20:59:20.110Z,8.03
2019-04-26T21:01:46.617Z,8.47
2019-04-26T21:04:33.832Z,8.63
2019-04-26T21:06:40.523Z,7.90
2019-04-26T21:09:07.049Z,8.30
2019-04-26T21:11:38.192Z,8.30
2019-04-26T21:14:07.452Z,9.03
2019-04-26T21:16:32.344Z,7.93
2019-04-26T21:18:59.472Z,8.67
2019-04-26T21:21:25.465Z,8.20
2019-04-26T21:23:51.467Z,8.97
2019-04-26T21:26:17.515Z,9.20
2019-04-26T21:28:43.935Z,8.27
2019-04-26T21:31:10.155Z,8.73
2019-04-26T21:33:38.983Z,8.50
2019-04-26T21:36:05.831Z,8.63
2019-04-26T21:38:33.358Z,8.90
2019-04-26T21:41:04.386Z,9.47
2019-04-26T21:43:29.549Z,9.43
2019-04-26T21:46:07.306Z,9.17
2019-04-26T21:48:24.481Z,8.93
2019-04-26T21:50:50.539Z,9.77
2019-04-26T21:53:16.646Z,9.03
2019-04-26T21:55:43.465Z,10.33
2019-04-26T21:58:09.467Z,10.90
2019-04-26T22:00:35.453Z,9.77
2019-04-26T22:03:03.859Z,9.17
2019-04-26T22:05:30.080Z,9.13
2019-04-26T22:07:56.088Z,10.80
2019-04-26T22:10:23.489Z,10.80
2019-04-26T22:12:49.758Z,11.07
2019-04-26T22:15:15.786Z,10.60
2019-04-26T22:17:41.804Z,10.63
2019-04-26T22:20:12.912Z,10.43
2019-04-26T22:22:37.489Z,11.50
2019-04-26T22:25:04.975Z,10.57
2019-04-26T22:27:31.158Z,11.47
2019-04-26T22:29:57.160Z,11.40
2019-04-26T22:32:23.104Z,10.67
2019-04-26T22:34:49.278Z,12.03
2019-04-26T22:37:28.825Z,11.20
2019-04-26T22:39:44.398Z,11.20
2019-04-26T22:42:11.549Z,11.70
2019-04-26T22:44:37.574Z,10.83
2019-04-26T22:47:04.850Z,11.90
2019-04-26T22:49:35.060Z,12.17
2019-04-26T22:51:58.905Z,13.23
2019-04-26T22:54:25.902Z,12.47
2019-04-26T22:56:52.050Z,11.67
2019-04-26T22:59:19.699Z,11.93
2019-04-26T23:01:48.676Z,12.00
2019-04-26T23:04:16.267Z,12.27
2019-04-26T23:06:42.454Z,12.20
2019-04-26T23:09:11.621Z,12.03
2019-04-26T23:11:39.486Z,11.17
2019-04-26T23:14:06.113Z,11.70
2019-04-26T23:16:33.575Z,11.97
2019-04-26T23:18:59.773Z,12.37
2019-04-26T23:21:26.708Z,11.97
2019-04-26T23:23:53.454Z,13.37
2019-04-26T23:26:19.529Z,12.20
2019-04-26T23:28:45.453Z,11.93
2019-04-26T23:31:13.322Z,11.63
2019-04-26T23:33:39.449Z,13.10
2019-04-26T23:36:05.382Z,11.70
2019-04-26T23:38:36.148Z,12.00
2019-04-26T23:41:01.134Z,12.03
2019-04-26T23:43:28.136Z,12.77
2019-04-26T23:45:54.166Z,11.30
2019-04-26T23:48:20.199Z,12.63
2019-04-26T23:50:46.139Z,12.43
2019-04-26T23:53:13.855Z,11.67
2019-04-26T23:55:42.481Z,13.10
2019-04-26T23:58:10.690Z,12.87
